createdAt,value
2018-01-16T00:06:03.229Z,5
2018-01-16T00:16:03.358Z,5
2018-01-16T00:26:03.269Z,4
2018-01-16T00:36:03.381Z,7
2018-01-16T00:46:03.290Z,10
2018-01-16T00:56:03.320Z,11
2018-01-16T01:06:03.317Z,11
2018-01-16T01:16:03.364Z,8
2018-01-16T01:26:03.323Z,8
2018-01-16T01:36:03.236Z,8
2018-01-16T01:46:03.361Z,7
2018-01-16T01:56:03.289Z,5
2018-01-16T02:06:03.383Z,5
2018-01-16T02:16:03.298Z,5
2018-01-16T02:26:03.387Z,5
2018-01-16T02:36:03.457Z,3
2018-01-16T02:46:03.386Z,3
2018-01-16T02:56:03.476Z,3
2018-01-16T03:06:03.418Z,3
2018-01-16T03:16:03.368Z,7
2018-01-16T03:26:03.432Z,7
2018-01-16T03:36:03.353Z,9
2018-01-16T03:46:03.390Z,8
2018-01-16T03:56:03.419Z,9
2018-01-16T04:06:03.408Z,8
2018-01-16T04:16:03.467Z,7
2018-01-16T04:26:03.432Z,7
2018-01-16T04:36:03.490Z,7
2018-01-16T04:46:03.477Z,7
2018-01-16T04:56:03.505Z,7
2018-01-16T05:06:03.486Z,5
2018-01-16T05:16:03.525Z,4
2018-01-16T05:26:03.444Z,3
2018-01-16T05:36:03.596Z,3
2018-01-16T05:46:03.510Z,3
2018-01-16T05:56:03.448Z,3
2018-01-16T06:06:03.574Z,4
2018-01-16T06:16:03.506Z,5
2018-01-16T06:26:03.537Z,4
2018-01-16T06:36:03.512Z,6
2018-01-16T06:46:03.586Z,5
2018-01-16T06:56:03.540Z,5
2018-01-16T07:06:03.593Z,5
2018-01-16T07:16:03.576Z,6
2018-01-16T07:26:03.656Z,5
2018-01-16T07:36:03.624Z,5
2018-01-16T07:46:03.649Z,6
2018-01-16T07:56:03.610Z,5
2018-01-16T08:06:03.598Z,5
2018-01-16T08:16:03.661Z,4
2018-01-16T08:26:03.557Z,1
2018-01-16T08:36:03.767Z,1
2018-01-16T08:46:03.714Z,0
2018-01-16T08:56:03.976Z,1
2018-01-16T09:06:04.367Z,1
2018-01-16T09:16:05.962Z,1
2018-01-16T09:26:03.886Z,1
2018-01-16T09:36:03.722Z,1
2018-01-16T09:46:03.655Z,0
2018-01-16T09:56:03.838Z,1
2018-01-16T10:06:03.783Z,1
2018-01-16T10:16:03.640Z,0
2018-01-16T10:26:03.739Z,0
2018-01-16T10:36:03.738Z,1
2018-01-16T10:46:03.753Z,1
2018-01-16T10:56:03.754Z,1
2018-01-16T11:06:03.738Z,1
2018-01-16T11:16:03.726Z,1
2018-01-16T11:26:03.772Z,1
2018-01-16T11:36:03.855Z,1
2018-01-16T11:46:04.026Z,1
2018-01-16T11:56:03.985Z,1
2018-01-16T12:06:03.951Z,1
2018-01-16T12:16:03.940Z,2
2018-01-16T12:26:04.326Z,1
2018-01-16T12:36:04.124Z,2
2018-01-16T12:46:03.977Z,2
2018-01-16T12:56:06.290Z,2
2018-01-16T13:06:03.847Z,1
2018-01-16T13:16:03.796Z,2
2018-01-16T13:26:03.933Z,1
2018-01-16T13:36:03.851Z,1
2018-01-16T13:46:03.950Z,1
2018-01-16T13:56:03.917Z,1
2018-01-16T14:06:04.074Z,1
2018-01-16T14:16:04.007Z,2
2018-01-16T14:26:03.928Z,2
2018-01-16T14:36:03.874Z,1
2018-01-16T14:46:03.998Z,1
2018-01-16T14:56:03.926Z,2
2018-01-16T15:06:04.829Z,1
2018-01-16T15:16:03.999Z,2
2018-01-16T15:26:04.000Z,1
2018-01-16T15:36:04.076Z,2
2018-01-16T15:52:31.567Z,2
2018-01-16T15:56:03.951Z,2
2018-01-16T16:06:04.095Z,2
2018-01-16T16:16:04.033Z,1
2018-01-16T16:26:06.349Z,1
2018-01-16T16:36:04.105Z,2
2018-01-16T16:46:04.119Z,2
2018-01-16T16:56:04.093Z,3
2018-01-16T17:06:04.053Z,3
2018-01-16T17:16:04.040Z,2
2018-01-16T17:26:04.090Z,3
2018-01-16T17:36:04.112Z,5
2018-01-16T17:46:04.242Z,3
2018-01-16T17:56:04.117Z,3
2018-01-16T18:06:04.410Z,3
2018-01-16T18:16:04.230Z,2
2018-01-16T18:26:04.278Z,3
2018-01-16T18:36:04.311Z,3
2018-01-16T18:46:19.019Z,3
2018-01-16T18:56:04.128Z,3
2018-01-16T19:06:04.176Z,4
2018-01-16T19:16:04.272Z,3
2018-01-16T19:26:04.637Z,3
2018-01-16T19:36:04.528Z,3
2018-01-16T19:47:40.881Z,2
2018-01-16T19:57:44.342Z,2
2018-01-16T20:07:42.489Z,3
2018-01-16T20:17:44.094Z,3
2018-01-16T20:27:29.077Z,3
2018-01-16T20:36:04.315Z,3
2018-01-16T20:46:04.206Z,3
2018-01-16T20:56:04.235Z,3
2018-01-16T21:06:04.716Z,4
2018-01-16T21:16:04.316Z,4
2018-01-16T21:26:04.258Z,4
2018-01-16T21:36:04.392Z,3
2018-01-16T21:46:04.270Z,3
2018-01-16T21:56:04.322Z,3
2018-01-16T22:06:04.400Z,3
2018-01-16T22:16:04.665Z,4
2018-01-16T22:26:04.426Z,5
2018-01-16T22:36:04.358Z,5
2018-01-16T22:46:04.468Z,6
2018-01-16T22:56:05.137Z,7
2018-01-16T23:06:04.512Z,3
2018-01-16T23:16:04.363Z,2
2018-01-16T23:26:04.560Z,2
2018-01-16T23:36:04.452Z,3
2018-01-16T23:46:04.325Z,7
2018-01-16T23:56:04.483Z,6
